sensor_id;sensor_type;location;lat;lon;timestamp;pressure;altitude;pressure_sealevel;temperature;humidity
35577;BME280;21680;52.400;16.920;2023-03-24T00:01:50;99898.52;;;9.93;73.36
35577;BME280;21680;52.400;16.920;2023-03-24T00:04:15;99897.85;;;9.92;73.44
35577;BME280;21680;52.400;16.920;2023-03-24T00:06:41;99897.96;;;9.90;73.41
35577;BME280;21680;52.400;16.920;2023-03-24T00:09:08;99897.75;;;9.88;73.52
35577;BME280;21680;52.400;16.920;2023-03-24T00:11:33;99898.23;;;9.85;73.51
35577;BME280;21680;52.400;16.920;2023-03-24T00:14:02;99896.05;;;9.83;73.66
35577;BME280;21680;52.400;16.920;2023-03-24T00:16:29;99897.75;;;9.81;73.66
35577;BME280;21680;52.400;16.920;2023-03-24T00:18:54;99901.58;;;9.79;73.74
35577;BME280;21680;52.400;16.920;2023-03-24T00:21:22;99902.93;;;9.77;73.73
35577;BME280;21680;52.400;16.920;2023-03-24T00:23:49;99903.02;;;9.75;73.83
35577;BME280;21680;52.400;16.920;2023-03-24T00:26:16;99902.20;;;9.74;73.85
35577;BME280;21680;52.400;16.920;2023-03-24T00:28:44;99904.13;;;9.75;73.92
35577;BME280;21680;52.400;16.920;2023-03-24T00:31:11;99900.77;;;9.74;74.00
35577;BME280;21680;52.400;16.920;2023-03-24T00:33:39;99896.08;;;9.75;73.95
35577;BME280;21680;52.400;16.920;2023-03-24T00:36:06;99895.31;;;9.76;74.06
35577;BME280;21680;52.400;16.920;2023-03-24T00:38:33;99885.59;;;9.78;74.08
35577;BME280;21680;52.400;16.920;2023-03-24T00:40:59;99884.20;;;9.81;74.17
35577;BME280;21680;52.400;16.920;2023-03-24T00:43:25;99881.49;;;9.81;74.07
35577;BME280;21680;52.400;16.920;2023-03-24T00:45:57;99879.48;;;9.83;74.06
35577;BME280;21680;52.400;16.920;2023-03-24T00:48:23;99870.52;;;9.83;74.17
35577;BME280;21680;52.400;16.920;2023-03-24T00:50:50;99867.10;;;9.84;74.26
35577;BME280;21680;52.400;16.920;2023-03-24T00:53:17;99870.30;;;9.84;74.28
35577;BME280;21680;52.400;16.920;2023-03-24T00:55:44;99865.29;;;9.84;74.32
35577;BME280;21680;52.400;16.920;2023-03-24T00:58:13;99866.88;;;9.85;74.32
35577;BME280;21680;52.400;16.920;2023-03-24T01:00:43;99861.41;;;9.83;74.34
35577;BME280;21680;52.400;16.920;2023-03-24T01:03:08;99856.98;;;9.83;74.50
35577;BME280;21680;52.400;16.920;2023-03-24T01:05:34;99853.21;;;9.83;74.53
35577;BME280;21680;52.400;16.920;2023-03-24T01:08:01;99855.20;;;9.83;74.50
35577;BME280;21680;52.400;16.920;2023-03-24T01:10:33;99850.38;;;9.83;74.67
35577;BME280;21680;52.400;16.920;2023-03-24T01:12:59;99850.79;;;9.82;74.60
35577;BME280;21680;52.400;16.920;2023-03-24T01:15:30;99844.76;;;9.81;74.67
35577;BME280;21680;52.400;16.920;2023-03-24T01:17:57;99842.52;;;9.80;74.70
35577;BME280;21680;52.400;16.920;2023-03-24T01:20:23;99837.55;;;9.79;74.92
35577;BME280;21680;52.400;16.920;2023-03-24T01:22:49;99835.80;;;9.78;74.90
35577;BME280;21680;52.400;16.920;2023-03-24T01:25:17;99832.96;;;9.78;74.94
35577;BME280;21680;52.400;16.920;2023-03-24T01:27:44;99832.73;;;9.79;75.03
35577;BME280;21680;52.400;16.920;2023-03-24T01:30:16;99831.85;;;9.82;75.11
35577;BME280;21680;52.400;16.920;2023-03-24T01:32:41;99833.14;;;9.85;75.06
35577;BME280;21680;52.400;16.920;2023-03-24T01:35:09;99836.38;;;9.84;75.08
35577;BME280;21680;52.400;16.920;2023-03-24T01:37:36;99834.71;;;9.85;75.14
35577;BME280;21680;52.400;16.920;2023-03-24T01:40:02;99832.74;;;9.85;75.23
35577;BME280;21680;52.400;16.920;2023-03-24T01:42:32;99824.83;;;9.86;75.27
35577;BME280;21680;52.400;16.920;2023-03-24T01:45:01;99824.85;;;9.86;75.25
35577;BME280;21680;52.400;16.920;2023-03-24T01:47:26;99826.25;;;9.87;75.36
35577;BME280;21680;52.400;16.920;2023-03-24T01:49:55;99827.26;;;9.88;75.40
35577;BME280;21680;52.400;16.920;2023-03-24T01:52:24;99823.66;;;9.88;75.31
35577;BME280;21680;52.400;16.920;2023-03-24T01:55:04;99819.25;;;9.88;75.39
35577;BME280;21680;52.400;16.920;2023-03-24T01:57:38;99813.63;;;9.89;75.51
35577;BME280;21680;52.400;16.920;2023-03-24T02:00:10;99817.64;;;9.91;75.43
35577;BME280;21680;52.400;16.920;2023-03-24T02:02:40;99813.60;;;9.89;75.39
35577;BME280;21680;52.400;16.920;2023-03-24T02:05:09;99804.73;;;9.89;75.67
35577;BME280;21680;52.400;16.920;2023-03-24T02:07:47;99799.89;;;9.89;75.54
35577;BME280;21680;52.400;16.920;2023-03-24T02:10:16;99798.25;;;9.90;75.65
35577;BME280;21680;52.400;16.920;2023-03-24T02:12:43;99793.81;;;9.89;75.82
35577;BME280;21680;52.400;16.920;2023-03-24T02:15:11;99793.61;;;9.90;75.86
35577;BME280;21680;52.400;16.920;2023-03-24T02:20:29;99785.84;;;9.91;75.98
35577;BME280;21680;52.400;16.920;2023-03-24T02:25:58;99783.67;;;9.88;75.93
35577;BME280;21680;52.400;16.920;2023-03-24T02:42:13;99775.63;;;9.63;75.99
35577;BME280;21680;52.400;16.920;2023-03-24T02:47:48;99773.94;;;9.58;76.15
35577;BME280;21680;52.400;16.920;2023-03-24T02:50:26;99772.84;;;9.55;76.14
35577;BME280;21680;52.400;16.920;2023-03-24T02:53:14;99771.88;;;9.53;76.26
35577;BME280;21680;52.400;16.920;2023-03-24T02:55:48;99768.17;;;9.52;76.42
35577;BME280;21680;52.400;16.920;2023-03-24T02:58:22;99767.08;;;9.52;76.35
35577;BME280;21680;52.400;16.920;2023-03-24T03:00:56;99769.83;;;9.51;76.35
35577;BME280;21680;52.400;16.920;2023-03-24T03:03:41;99768.98;;;9.50;76.37
35577;BME280;21680;52.400;16.920;2023-03-24T03:08:39;99762.16;;;9.44;76.64
35577;BME280;21680;52.400;16.920;2023-03-24T03:11:07;99759.35;;;9.43;76.64
35577;BME280;21680;52.400;16.920;2023-03-24T03:13:39;99754.60;;;9.42;76.79
35577;BME280;21680;52.400;16.920;2023-03-24T03:16:20;99754.58;;;9.42;76.80
35577;BME280;21680;52.400;16.920;2023-03-24T03:18:57;99755.98;;;9.42;76.82
35577;BME280;21680;52.400;16.920;2023-03-24T03:21:29;99754.55;;;9.43;76.83
35577;BME280;21680;52.400;16.920;2023-03-24T03:23:57;99748.31;;;9.43;76.86
35577;BME280;21680;52.400;16.920;2023-03-24T03:26:28;99745.33;;;9.42;77.04
35577;BME280;21680;52.400;16.920;2023-03-24T03:29:00;99747.39;;;9.44;77.09
35577;BME280;21680;52.400;16.920;2023-03-24T03:31:35;99734.55;;;9.43;77.03
35577;BME280;21680;52.400;16.920;2023-03-24T03:34:17;99732.95;;;9.43;77.05
35577;BME280;21680;52.400;16.920;2023-03-24T03:36:56;99725.46;;;9.43;77.28
35577;BME280;21680;52.400;16.920;2023-03-24T03:39:30;99725.09;;;9.44;77.23
35577;BME280;21680;52.400;16.920;2023-03-24T03:41:57;99722.95;;;9.43;77.22
35577;BME280;21680;52.400;16.920;2023-03-24T03:44:23;99719.22;;;9.43;77.36
35577;BME280;21680;52.400;16.920;2023-03-24T03:46:49;99716.86;;;9.44;77.30
35577;BME280;21680;52.400;16.920;2023-03-24T03:49:15;99712.59;;;9.44;77.36
35577;BME280;21680;52.400;16.920;2023-03-24T03:51:40;99707.11;;;9.43;77.39
35577;BME280;21680;52.400;16.920;2023-03-24T03:54:09;99703.20;;;9.43;77.37
35577;BME280;21680;52.400;16.920;2023-03-24T03:56:36;99693.77;;;9.42;77.50
35577;BME280;21680;52.400;16.920;2023-03-24T03:59:03;99691.81;;;9.42;77.49
35577;BME280;21680;52.400;16.920;2023-03-24T04:01:32;99690.58;;;9.42;77.60
35577;BME280;21680;52.400;16.920;2023-03-24T04:07:00;99687.23;;;9.45;77.71
35577;BME280;21680;52.400;16.920;2023-03-24T04:09:58;99688.10;;;9.46;77.63
35577;BME280;21680;52.400;16.920;2023-03-24T04:14:59;99677.41;;;9.45;77.80
35577;BME280;21680;52.400;16.920;2023-03-24T04:20:27;99673.48;;;9.45;77.95
35577;BME280;21680;52.400;16.920;2023-03-24T04:23:23;99674.38;;;9.45;77.91
35577;BME280;21680;52.400;16.920;2023-03-24T04:31:31;99670.91;;;9.43;78.04
35577;BME280;21680;52.400;16.920;2023-03-24T04:34:03;99667.67;;;9.43;78.05
35577;BME280;21680;52.400;16.920;2023-03-24T04:36:35;99669.61;;;9.44;78.11
35577;BME280;21680;52.400;16.920;2023-03-24T04:39:13;99666.31;;;9.46;78.15
35577;BME280;21680;52.400;16.920;2023-03-24T04:41:41;99662.19;;;9.46;78.14
35577;BME280;21680;52.400;16.920;2023-03-24T04:44:09;99653.80;;;9.47;78.22
35577;BME280;21680;52.400;16.920;2023-03-24T04:46:35;99650.15;;;9.48;78.22
35577;BME280;21680;52.400;16.920;2023-03-24T04:49:03;99644.02;;;9.49;78.18
35577;BME280;21680;52.400;16.920;2023-03-24T04:51:30;99643.22;;;9.51;78.39
35577;BME280;21680;52.400;16.920;2023-03-24T04:53:56;99639.58;;;9.52;78.32
35577;BME280;21680;52.400;16.920;2023-03-24T04:56:33;99637.59;;;9.52;78.29
35577;BME280;21680;52.400;16.920;2023-03-24T04:59:01;99634.28;;;9.54;78.47
35577;BME280;21680;52.400;16.920;2023-03-24T05:01:26;99632.42;;;9.56;78.55
35577;BME280;21680;52.400;16.920;2023-03-24T05:03:58;99631.96;;;9.58;78.60
35577;BME280;21680;52.400;16.920;2023-03-24T05:06:24;99632.54;;;9.60;78.51
35577;BME280;21680;52.400;16.920;2023-03-24T05:08:51;99637.48;;;9.61;78.65
35577;BME280;21680;52.400;16.920;2023-03-24T05:11:17;99634.89;;;9.63;78.69
35577;BME280;21680;52.400;16.920;2023-03-24T05:13:43;99627.83;;;9.65;78.74
35577;BME280;21680;52.400;16.920;2023-03-24T05:16:09;99625.66;;;9.68;78.84
35577;BME280;21680;52.400;16.920;2023-03-24T05:18:34;99623.70;;;9.71;78.76
35577;BME280;21680;52.400;16.920;2023-03-24T05:21:00;99618.33;;;9.74;78.82
35577;BME280;21680;52.400;16.920;2023-03-24T05:23:25;99617.05;;;9.78;78.92
35577;BME280;21680;52.400;16.920;2023-03-24T05:25:50;99617.86;;;9.83;78.96
35577;BME280;21680;52.400;16.920;2023-03-24T05:28:16;99616.03;;;9.87;78.97
35577;BME280;21680;52.400;16.920;2023-03-24T05:30:41;99615.76;;;9.92;79.05
35577;BME280;21680;52.400;16.920;2023-03-24T05:33:07;99615.30;;;9.96;78.97
35577;BME280;21680;52.400;16.920;2023-03-24T05:35:32;99607.17;;;10.01;79.04
35577;BME280;21680;52.400;16.920;2023-03-24T05:37:57;99607.39;;;10.06;79.07
35577;BME280;21680;52.400;16.920;2023-03-24T05:40:22;99599.12;;;10.11;79.18
35577;BME280;21680;52.400;16.920;2023-03-24T05:42:49;99597.77;;;10.16;79.19
35577;BME280;21680;52.400;16.920;2023-03-24T05:45:15;99601.29;;;10.20;79.17
35577;BME280;21680;52.400;16.920;2023-03-24T05:47:40;99606.40;;;10.24;79.22
35577;BME280;21680;52.400;16.920;2023-03-24T05:50:06;99602.60;;;10.28;79.12
35577;BME280;21680;52.400;16.920;2023-03-24T05:52:32;99598.26;;;10.32;79.19
35577;BME280;21680;52.400;16.920;2023-03-24T05:54:58;99592.01;;;10.35;79.37
35577;BME280;21680;52.400;16.920;2023-03-24T05:57:23;99591.23;;;10.39;79.35
35577;BME280;21680;52.400;16.920;2023-03-24T05:59:48;99586.11;;;10.44;79.35
35577;BME280;21680;52.400;16.920;2023-03-24T06:02:14;99580.69;;;10.48;79.39
35577;BME280;21680;52.400;16.920;2023-03-24T06:04:39;99575.38;;;10.53;79.34
35577;BME280;21680;52.400;16.920;2023-03-24T06:07:11;99570.66;;;10.57;79.43
35577;BME280;21680;52.400;16.920;2023-03-24T06:09:37;99574.36;;;10.61;79.43
35577;BME280;21680;52.400;16.920;2023-03-24T06:12:07;99571.94;;;10.65;79.33
35577;BME280;21680;52.400;16.920;2023-03-24T06:14:33;99573.86;;;10.69;79.38
35577;BME280;21680;52.400;16.920;2023-03-24T06:16:58;99573.20;;;10.74;79.42
35577;BME280;21680;52.400;16.920;2023-03-24T06:19:24;99572.73;;;10.79;79.51
35577;BME280;21680;52.400;16.920;2023-03-24T06:21:51;99573.81;;;10.85;79.65
35577;BME280;21680;52.400;16.920;2023-03-24T06:24:17;99573.80;;;10.91;79.61
35577;BME280;21680;52.400;16.920;2023-03-24T06:26:44;99571.48;;;10.96;79.40
35577;BME280;21680;52.400;16.920;2023-03-24T06:29:11;99574.59;;;11.01;79.60
35577;BME280;21680;52.400;16.920;2023-03-24T06:31:37;99576.35;;;11.04;79.63
35577;BME280;21680;52.400;16.920;2023-03-24T06:34:03;99575.46;;;11.10;79.57
35577;BME280;21680;52.400;16.920;2023-03-24T06:36:29;99579.03;;;11.15;79.98
35577;BME280;21680;52.400;16.920;2023-03-24T06:38:54;99571.40;;;11.23;79.87
35577;BME280;21680;52.400;16.920;2023-03-24T06:41:21;99575.70;;;11.31;79.93
35577;BME280;21680;52.400;16.920;2023-03-24T06:43:46;99573.59;;;11.39;79.96
35577;BME280;21680;52.400;16.920;2023-03-24T06:46:11;99569.34;;;11.47;79.98
35577;BME280;21680;52.400;16.920;2023-03-24T06:48:36;99565.99;;;11.54;80.05
35577;BME280;21680;52.400;16.920;2023-03-24T06:51:03;99565.64;;;11.60;80.55
35577;BME280;21680;52.400;16.920;2023-03-24T06:53:28;99564.25;;;11.64;80.12
35577;BME280;21680;52.400;16.920;2023-03-24T06:55:54;99555.08;;;11.68;80.16
35577;BME280;21680;52.400;16.920;2023-03-24T06:58:19;99552.30;;;11.72;80.11
35577;BME280;21680;52.400;16.920;2023-03-24T07:00:45;99544.80;;;11.75;80.15
35577;BME280;21680;52.400;16.920;2023-03-24T07:03:11;99544.39;;;11.79;80.31
35577;BME280;21680;52.400;16.920;2023-03-24T07:05:38;99536.29;;;11.82;80.53
35577;BME280;21680;52.400;16.920;2023-03-24T07:08:05;99533.34;;;11.86;80.49
35577;BME280;21680;52.400;16.920;2023-03-24T07:10:31;99537.52;;;11.90;80.40
35577;BME280;21680;52.400;16.920;2023-03-24T07:12:56;99538.74;;;11.93;80.55
35577;BME280;21680;52.400;16.920;2023-03-24T07:15:22;99537.62;;;11.97;80.71
35577;BME280;21680;52.400;16.920;2023-03-24T07:17:48;99538.02;;;12.01;80.71
35577;BME280;21680;52.400;16.920;2023-03-24T07:20:13;99539.63;;;12.04;80.80
35577;BME280;21680;52.400;16.920;2023-03-24T07:22:40;99538.00;;;12.08;80.85
35577;BME280;21680;52.400;16.920;2023-03-24T07:25:05;99535.13;;;12.10;80.80
35577;BME280;21680;52.400;16.920;2023-03-24T07:27:32;99536.36;;;12.13;80.87
35577;BME280;21680;52.400;16.920;2023-03-24T07:29:58;99531.37;;;12.18;80.94
35577;BME280;21680;52.400;16.920;2023-03-24T07:32:24;99531.13;;;12.24;81.10
35577;BME280;21680;52.400;16.920;2023-03-24T07:34:50;99519.77;;;12.28;80.99
35577;BME280;21680;52.400;16.920;2023-03-24T07:37:15;99522.45;;;12.30;81.07
35577;BME280;21680;52.400;16.920;2023-03-24T07:39:41;99523.55;;;12.33;81.10
35577;BME280;21680;52.400;16.920;2023-03-24T07:42:06;99525.96;;;12.34;81.10
35577;BME280;21680;52.400;16.920;2023-03-24T07:44:31;99525.98;;;12.36;81.34
35577;BME280;21680;52.400;16.920;2023-03-24T07:46:57;99521.85;;;12.39;81.34
35577;BME280;21680;52.400;16.920;2023-03-24T07:49:22;99517.55;;;12.42;81.38
35577;BME280;21680;52.400;16.920;2023-03-24T07:51:47;99516.50;;;12.44;81.42
35577;BME280;21680;52.400;16.920;2023-03-24T07:54:13;99515.19;;;12.45;81.52
35577;BME280;21680;52.400;16.920;2023-03-24T07:56:38;99516.05;;;12.48;81.46
35577;BME280;21680;52.400;16.920;2023-03-24T07:59:04;99510.27;;;12.51;81.54
35577;BME280;21680;52.400;16.920;2023-03-24T08:01:30;99514.98;;;12.53;81.54
35577;BME280;21680;52.400;16.920;2023-03-24T08:03:55;99513.41;;;12.55;81.59
35577;BME280;21680;52.400;16.920;2023-03-24T08:06:21;99519.27;;;12.58;81.48
35577;BME280;21680;52.400;16.920;2023-03-24T08:08:46;99518.16;;;12.61;81.56
35577;BME280;21680;52.400;16.920;2023-03-24T08:11:12;99505.83;;;12.63;81.54
35577;BME280;21680;52.400;16.920;2023-03-24T08:13:37;99503.61;;;12.67;81.53
35577;BME280;21680;52.400;16.920;2023-03-24T08:16:02;99509.83;;;12.73;81.49
35577;BME280;21680;52.400;16.920;2023-03-24T08:18:28;99500.34;;;12.80;81.51
35577;BME280;21680;52.400;16.920;2023-03-24T08:20:57;99499.15;;;12.87;81.40
35577;BME280;21680;52.400;16.920;2023-03-24T08:23:23;99488.96;;;12.94;81.32
35577;BME280;21680;52.400;16.920;2023-03-24T08:25:49;99490.41;;;13.03;81.43
35577;BME280;21680;52.400;16.920;2023-03-24T08:28:14;99485.95;;;13.13;81.33
35577;BME280;21680;52.400;16.920;2023-03-24T08:30:41;99481.34;;;13.20;81.41
35577;BME280;21680;52.400;16.920;2023-03-24T08:33:12;99484.83;;;13.28;81.12
35577;BME280;21680;52.400;16.920;2023-03-24T08:35:37;99488.52;;;13.40;81.12
35577;BME280;21680;52.400;16.920;2023-03-24T08:38:04;99480.61;;;13.49;81.09
35577;BME280;21680;52.400;16.920;2023-03-24T08:40:30;99475.05;;;13.59;81.14
35577;BME280;21680;52.400;16.920;2023-03-24T08:42:58;99476.02;;;13.68;80.90
35577;BME280;21680;52.400;16.920;2023-03-24T08:45:26;99471.30;;;13.75;80.92
35577;BME280;21680;52.400;16.920;2023-03-24T08:47:53;99466.61;;;13.83;80.74
35577;BME280;21680;52.400;16.920;2023-03-24T08:50:21;99470.11;;;13.88;80.28
35577;BME280;21680;52.400;16.920;2023-03-24T08:52:48;99466.13;;;13.94;80.46
35577;BME280;21680;52.400;16.920;2023-03-24T08:55:15;99458.27;;;13.98;80.12
35577;BME280;21680;52.400;16.920;2023-03-24T08:57:41;99451.83;;;14.07;80.33
35577;BME280;21680;52.400;16.920;2023-03-24T09:00:07;99452.04;;;14.21;80.10
35577;BME280;21680;52.400;16.920;2023-03-24T09:02:37;99451.86;;;14.34;80.02
35577;BME280;21680;52.400;16.920;2023-03-24T09:05:03;99450.17;;;14.45;79.69
35577;BME280;21680;52.400;16.920;2023-03-24T09:07:28;99449.09;;;14.54;78.96
35577;BME280;21680;52.400;16.920;2023-03-24T09:09:54;99445.73;;;14.65;79.11
35577;BME280;21680;52.400;16.920;2023-03-24T09:12:19;99446.14;;;14.75;79.02
35577;BME280;21680;52.400;16.920;2023-03-24T09:14:48;99437.02;;;14.81;78.89
35577;BME280;21680;52.400;16.920;2023-03-24T09:17:14;99436.87;;;14.90;78.22
35577;BME280;21680;52.400;16.920;2023-03-24T09:19:40;99440.61;;;14.95;78.25
35577;BME280;21680;52.400;16.920;2023-03-24T09:22:05;99438.10;;;15.01;77.82
35577;BME280;21680;52.400;16.920;2023-03-24T09:24:31;99438.48;;;15.05;77.59
35577;BME280;21680;52.400;16.920;2023-03-24T09:26:56;99427.48;;;15.12;77.24
35577;BME280;21680;52.400;16.920;2023-03-24T09:29:21;99419.23;;;15.21;77.20
35577;BME280;21680;52.400;16.920;2023-03-24T09:31:47;99413.64;;;15.23;76.15
35577;BME280;21680;52.400;16.920;2023-03-24T09:34:12;99410.95;;;15.25;76.56
35577;BME280;21680;52.400;16.920;2023-03-24T09:36:37;99406.72;;;15.29;76.06
35577;BME280;21680;52.400;16.920;2023-03-24T09:39:02;99398.45;;;15.31;75.67
35577;BME280;21680;52.400;16.920;2023-03-24T09:41:29;99393.94;;;15.37;75.34
35577;BME280;21680;52.400;16.920;2023-03-24T09:44:01;99397.00;;;15.46;75.06
35577;BME280;21680;52.400;16.920;2023-03-24T09:46:40;99392.52;;;15.63;75.35
35577;BME280;21680;52.400;16.920;2023-03-24T09:49:11;99388.56;;;15.81;75.10
35577;BME280;21680;52.400;16.920;2023-03-24T09:51:41;99390.32;;;15.97;74.35
35577;BME280;21680;52.400;16.920;2023-03-24T09:54:34;99389.95;;;16.03;73.90
35577;BME280;21680;52.400;16.920;2023-03-24T09:57:02;99393.86;;;16.02;73.23
35577;BME280;21680;52.400;16.920;2023-03-24T09:59:35;99382.50;;;15.98;73.07
35577;BME280;21680;52.400;16.920;2023-03-24T10:02:10;99382.95;;;15.97;72.99
35577;BME280;21680;52.400;16.920;2023-03-24T10:04:36;99383.31;;;15.95;72.50
35577;BME280;21680;52.400;16.920;2023-03-24T10:07:24;99388.38;;;15.95;71.96
35577;BME280;21680;52.400;16.920;2023-03-24T10:10:00;99379.95;;;15.94;71.28
35577;BME280;21680;52.400;16.920;2023-03-24T10:12:35;99379.11;;;15.95;71.94
35577;BME280;21680;52.400;16.920;2023-03-24T10:20:52;99387.23;;;16.02;70.98
35577;BME280;21680;52.400;16.920;2023-03-24T10:23:39;99392.52;;;16.03;71.43
35577;BME280;21680;52.400;16.920;2023-03-24T10:31:49;99375.58;;;15.88;70.84
35577;BME280;21680;52.400;16.920;2023-03-24T10:34:16;99376.28;;;15.80;70.85
35577;BME280;21680;52.400;16.920;2023-03-24T10:36:41;99371.41;;;15.78;71.08
35577;BME280;21680;52.400;16.920;2023-03-24T10:39:14;99376.96;;;15.72;70.92
35577;BME280;21680;52.400;16.920;2023-03-24T10:41:41;99371.80;;;15.60;70.92
35577;BME280;21680;52.400;16.920;2023-03-24T10:44:07;99372.02;;;15.53;70.70
35577;BME280;21680;52.400;16.920;2023-03-24T10:46:43;99369.90;;;15.47;70.82
35577;BME280;21680;52.400;16.920;2023-03-24T10:51:44;99374.09;;;15.34;70.98
35577;BME280;21680;52.400;16.920;2023-03-24T10:54:27;99368.02;;;15.33;70.90
35577;BME280;21680;52.400;16.920;2023-03-24T10:59:31;99358.06;;;15.46;71.19
35577;BME280;21680;52.400;16.920;2023-03-24T11:04:36;99360.73;;;15.68;71.18
35577;BME280;21680;52.400;16.920;2023-03-24T11:07:09;99357.87;;;15.74;71.28
35577;BME280;21680;52.400;16.920;2023-03-24T11:12:39;99360.26;;;15.73;70.78
35577;BME280;21680;52.400;16.920;2023-03-24T11:17:42;99365.35;;;15.71;70.69
35577;BME280;21680;52.400;16.920;2023-03-24T11:20:17;99364.45;;;15.69;70.60
35577;BME280;21680;52.400;16.920;2023-03-24T11:23:03;99361.54;;;15.69;70.63
35577;BME280;21680;52.400;16.920;2023-03-24T11:25:34;99362.98;;;15.71;70.68
35577;BME280;21680;52.400;16.920;2023-03-24T11:28:06;99355.59;;;15.73;70.62
35577;BME280;21680;52.400;16.920;2023-03-24T11:30:49;99360.20;;;15.74;70.43
35577;BME280;21680;52.400;16.920;2023-03-24T11:33:19;99364.77;;;15.75;70.46
35577;BME280;21680;52.400;16.920;2023-03-24T11:35:46;99365.06;;;15.76;70.47
35577;BME280;21680;52.400;16.920;2023-03-24T11:38:16;99367.05;;;15.78;70.54
35577;BME280;21680;52.400;16.920;2023-03-24T11:40:56;99367.00;;;15.79;70.43
35577;BME280;21680;52.400;16.920;2023-03-24T11:43:23;99364.39;;;15.76;70.31
35577;BME280;21680;52.400;16.920;2023-03-24T11:45:59;99366.19;;;15.76;70.16
35577;BME280;21680;52.400;16.920;2023-03-24T11:48:39;99361.67;;;15.80;70.54
35577;BME280;21680;52.400;16.920;2023-03-24T11:51:10;99355.83;;;15.89;70.60
35577;BME280;21680;52.400;16.920;2023-03-24T11:53:43;99350.98;;;15.97;70.59
35577;BME280;21680;52.400;16.920;2023-03-24T11:58:43;99346.22;;;16.23;70.82
35577;BME280;21680;52.400;16.920;2023-03-24T12:06:29;99336.48;;;16.68;70.53
35577;BME280;21680;52.400;16.920;2023-03-24T12:09:16;99328.42;;;16.80;70.43
35577;BME280;21680;52.400;16.920;2023-03-24T12:14:38;99326.39;;;17.15;70.38
35577;BME280;21680;52.400;16.920;2023-03-24T12:17:13;99317.26;;;17.27;70.08
35577;BME280;21680;52.400;16.920;2023-03-24T12:28:46;99306.14;;;17.53;69.53
35577;BME280;21680;52.400;16.920;2023-03-24T12:36:58;99322.78;;;17.80;68.44
35577;BME280;21680;52.400;16.920;2023-03-24T12:39:30;99319.27;;;17.75;67.28
35577;BME280;21680;52.400;16.920;2023-03-24T12:42:07;99317.79;;;17.79;67.82
35577;BME280;21680;52.400;16.920;2023-03-24T12:50:17;99314.09;;;17.95;66.37
35577;BME280;21680;52.400;16.920;2023-03-24T12:55:41;99305.83;;;18.15;65.38
35577;BME280;21680;52.400;16.920;2023-03-24T12:58:16;99306.59;;;18.15;64.24
35577;BME280;21680;52.400;16.920;2023-03-24T13:01:15;99302.70;;;18.16;64.70
35577;BME280;21680;52.400;16.920;2023-03-24T13:03:58;99301.96;;;18.25;64.12
35577;BME280;21680;52.400;16.920;2023-03-24T13:06:29;99304.30;;;18.22;62.39
35577;BME280;21680;52.400;16.920;2023-03-24T13:09:05;99307.86;;;18.11;61.60
35577;BME280;21680;52.400;16.920;2023-03-24T13:11:40;99304.60;;;18.04;60.82
35577;BME280;21680;52.400;16.920;2023-03-24T13:14:12;99318.80;;;17.92;60.42
35577;BME280;21680;52.400;16.920;2023-03-24T13:16:40;99308.09;;;17.80;60.61
35577;BME280;21680;52.400;16.920;2023-03-24T13:19:15;99303.36;;;17.75;61.04
35577;BME280;21680;52.400;16.920;2023-03-24T13:21:42;99301.08;;;17.74;60.69
35577;BME280;21680;52.400;16.920;2023-03-24T13:24:12;99306.67;;;17.72;59.80
35577;BME280;21680;52.400;16.920;2023-03-24T13:32:32;99289.27;;;17.79;59.67
35577;BME280;21680;52.400;16.920;2023-03-24T13:40:07;99283.70;;;17.92;59.37
35577;BME280;21680;52.400;16.920;2023-03-24T13:42:42;99281.95;;;17.99;59.19
35577;BME280;21680;52.400;16.920;2023-03-24T13:45:22;99277.82;;;17.93;58.75
35577;BME280;21680;52.400;16.920;2023-03-24T13:48:01;99277.48;;;17.83;58.55
35577;BME280;21680;52.400;16.920;2023-03-24T13:50:30;99274.00;;;17.80;58.39
35577;BME280;21680;52.400;16.920;2023-03-24T13:53:03;99277.48;;;17.81;58.46
35577;BME280;21680;52.400;16.920;2023-03-24T13:55:35;99273.82;;;17.80;58.40
35577;BME280;21680;52.400;16.920;2023-03-24T13:58:07;99273.27;;;17.78;58.37
35577;BME280;21680;52.400;16.920;2023-03-24T14:03:35;99262.23;;;17.82;58.36
35577;BME280;21680;52.400;16.920;2023-03-24T14:06:04;99268.42;;;17.83;58.21
35577;BME280;21680;52.400;16.920;2023-03-24T14:08:54;99266.20;;;17.80;57.60
35577;BME280;21680;52.400;16.920;2023-03-24T14:17:05;99263.85;;;18.16;58.12
35577;BME280;21680;52.400;16.920;2023-03-24T14:22:34;99261.65;;;18.43;58.06
35577;BME280;21680;52.400;16.920;2023-03-24T14:27:43;99262.17;;;18.34;57.42
35577;BME280;21680;52.400;16.920;2023-03-24T14:32:54;99257.13;;;18.07;57.68
35577;BME280;21680;52.400;16.920;2023-03-24T14:35:39;99263.70;;;18.04;57.88
35577;BME280;21680;52.400;16.920;2023-03-24T14:40:46;99268.15;;;17.78;57.75
35577;BME280;21680;52.400;16.920;2023-03-24T14:43:22;99267.48;;;17.68;57.72
35577;BME280;21680;52.400;16.920;2023-03-24T14:51:41;99256.91;;;17.31;57.44
35577;BME280;21680;52.400;16.920;2023-03-24T14:54:37;99252.60;;;17.23;57.56
35577;BME280;21680;52.400;16.920;2023-03-24T14:57:04;99259.52;;;17.15;57.60
35577;BME280;21680;52.400;16.920;2023-03-24T14:59:47;99261.32;;;17.09;57.58
35577;BME280;21680;52.400;16.920;2023-03-24T15:02:40;99256.73;;;17.02;57.60
35577;BME280;21680;52.400;16.920;2023-03-24T15:05:34;99257.02;;;16.97;58.06
35577;BME280;21680;52.400;16.920;2023-03-24T15:08:20;99256.31;;;16.91;57.89
35577;BME280;21680;52.400;16.920;2023-03-24T15:11:01;99258.41;;;16.84;57.97
35577;BME280;21680;52.400;16.920;2023-03-24T15:16:06;99262.43;;;16.75;58.35
35577;BME280;21680;52.400;16.920;2023-03-24T15:18:45;99266.30;;;16.69;58.66
35577;BME280;21680;52.400;16.920;2023-03-24T15:21:25;99275.34;;;16.52;58.77
35577;BME280;21680;52.400;16.920;2023-03-24T15:23:51;99284.08;;;16.16;60.12